Nathaniel B. Palmer — WBP3210 — position and weather

sailwx.info

Track history (hours):
 
Tides and Currents Weather Stations Pressure Air Temp Water Temp Dewpoint Dewpoint Depression Visibility Wind Speed Wind Dir Waves Ship Positions

Oceanographic research ship Nathaniel B. Palmer (USA)

Contact: Ethan Norris, ethan.norris.contractor@usap.gov

Detailed information on ship capabilities available from University of Delaware's Ocean Information Center and ARCUS's ALIAS (Arctic Logistics Information and Support) project.

Owner: OFFSHORE SERVICE VESSELS, GALLIANO, LA. More information available from US FCC via Universal Licensing System and Coast Guard Vessel Documentation Center.

Last reported at 2014-Nov-28 04:00 UTC. Time now 2014-Nov-28 05:39 UTC.
Position S 53°00' W 070°48'.

Type: Other ship. MMSI: 366610000.

Wind from 210 at 7 knots

Barometer 997.2 mb
Air temperature 9.6 ° C
Water temperature 3.8 ° C

Date/timePositionNaut miles runAvg speedWind from/ knotsBaromVisibWave heightAir tempDewpointWater temp
2014-Nov-28 04:00S 53°00' W 070°48'0 0.0 210 / 7997.2 9.6 3.8
2014-Nov-28 02:00S 53°00' W 070°48'0 0.0 260 / 14996.4 10.0 3.8
2014-Nov-28 00:00S 53°00' W 070°48'0 0.0 320 / 9994.4 13.7 3.8
2014-Nov-27 22:00S 53°00' W 070°48'0 0.0 050 / 12994.7 15.2 3.8
2014-Nov-27 20:00S 53°00' W 070°48'0 0.0 340 / 11995.0 15.4 3.8
2014-Nov-27 18:00S 53°00' W 070°48'0 0.0 330 / 11996.1 10.6 3.8
2014-Nov-27 16:00S 53°00' W 070°48'0 0.0 010 / 11997.9 10.7 3.8
2014-Nov-27 14:00S 53°00' W 070°48'0 0.0 110 / 71000.3 9.7 3.8
2014-Nov-27 12:00S 53°00' W 070°48'0 0.0 310 / 91002.2 8.6 3.8
2014-Nov-27 10:00S 53°00' W 070°48'0 0.0 010 / 61004.4 8.4 3.8
2014-Nov-27 08:00S 53°00' W 070°48'0 0.0 110 / 61005.7 8.8 3.8
2014-Nov-27 04:00S 53°00' W 070°48'0 0.0 270 / 51007.9 10.8 3.8
2014-Nov-27 02:00S 53°00' W 070°48'0 0.0 100 / 71009.1 10.0 3.8
2014-Nov-27 00:00S 53°00' W 070°48'0 0.0 260 / 91009.1 10.3 3.8
2014-Nov-26 22:00S 53°00' W 070°48'0 0.0 320 / 161008.6 11.5 3.8
2014-Nov-26 20:00S 53°00' W 070°48'0 0.0 270 / 291006.9 12.7 3.8
2014-Nov-26 18:00S 53°00' W 070°48'0 0.0 250 / 241006.3 12.8 3.8
2014-Nov-26 16:00S 53°00' W 070°48'0 0.0 240 / 241005.7 11.0 3.8
2014-Nov-26 14:00S 53°00' W 070°48'0 0.0 350 / 261004.4 11.8 3.8
2014-Nov-26 12:00S 53°00' W 070°48'0 0.0 290 / 161004.3 10.1 3.8
2014-Nov-26 10:00S 53°00' W 070°48'0 0.0 290 / 71002.7 9.2 3.8
2014-Nov-26 08:00S 53°00' W 070°48'0 0.0 030 / 81000.4 7.6 3.8
2014-Nov-26 04:00S 53°00' W 070°48'4 1.8 220 / 8998.6 7.3 3.8
2014-Nov-26 02:00S 53°00' W 070°42'0 0.0 270 / 28996.6 7.5 3.8
2014-Nov-26 00:00S 53°00' W 070°42'9 4.7 270 / 35993.9 7.6 3.8
2014-Nov-25 22:00S 52°54' W 070°30'19 9.7 280 / 38993.2 7.6 3.8
2014-Nov-25 20:00S 52°36' W 070°18'2613.1 260 / 43993.0 10.4 3.8
2014-Nov-25 18:00S 52°30' W 069°36'2612.8 270 / 38992.8 10.6 3.8
2014-Nov-25 16:00S 52°12' W 069°06'2814.2 260 / 36992.5 11.5 3.8
2014-Nov-25 14:00S 52°24' W 068°24'2210.9 270 / 28993.8 8.3 3.8
2014-Nov-25 12:00S 52°36' W 067°54'2612.8 270 / 30992.9 7.8 3.8
2014-Nov-25 10:00S 52°54' W 067°24'42 6.9 270 / 28992.6 6.6 3.8
2014-Nov-25 04:00S 53°24' W 066°36'35 8.7 300 / 41987.7 6.6 3.8
2014-Nov-25 00:00S 53°48' W 065°54'2512.6 280 / 33986.6 8.7 3.8
2014-Nov-24 22:00S 54°06' W 065°24'18 9.2 280 / 31986.2 8.8 3.8
2014-Nov-24 20:00S 54°18' W 065°00'3115.4 240 / 6989.2 7.3 3.8
2014-Nov-24 18:00S 54°48' W 064°48'18 9.2 260 / 13989.8 6.3 3.8
2014-Nov-24 16:00S 55°06' W 064°54'2512.5 280 / 18989.4 4.5 3.8
2014-Nov-24 14:00S 55°30' W 065°06'18 9.2 280 / 21989.2 4.1 3.8
2014-Nov-24 12:00S 55°48' W 065°12'19 9.6 270 / 26988.9 4.2 3.8
2014-Nov-24 10:00S 56°06' W 065°24'2412.1 260 / 30987.7 3.8 3.8
2014-Nov-24 08:00S 56°30' W 065°30'37 9.3 280 / 25986.1 3.6 3.8
2014-Nov-24 04:00S 57°06' W 065°48'2512.4 250 / 17986.2 3.9 3.8
2014-Nov-24 02:00S 57°30' W 066°00'18 9.1 240 / 19985.4 3.4 3.8
2014-Nov-24 00:00S 57°48' W 066°06'2512.4 230 / 17984.2 2.4 3.8
2014-Nov-23 22:00S 58°12' W 066°18'19 9.5 240 / 15982.9 3.2 3.8
2014-Nov-23 20:00S 58°30' W 066°30'2412.1 250 / 13981.8 3.2 3.6
2014-Nov-23 18:00S 58°54' W 066°36'19 9.5 280 / 10981.0 2.3 1.2
2014-Nov-23 16:00S 59°12' W 066°48'18 9.1 290 / 10980.8 1.3 0.3
2014-Nov-23 14:00S 59°30' W 066°54'2512.4 280 / 13980.4 2.4 2.0
2014-Nov-23 12:00S 59°54' W 067°06'13 6.7 340 / 15980.5 2.4 2.6
2014-Nov-23 10:00S 60°06' W 067°18'12 6.2 050 / 29982.9 0.1 2.6
2014-Nov-23 08:00S 60°18' W 067°24'4310.7 040 / 24985.5 -0.7 2.6
2014-Nov-23 04:00S 61°00' W 067°42'2010.0 360 / 11989.4 -0.4 0.1
2014-Nov-23 02:00S 61°18' W 068°00'19 9.4 320 / 10990.4 -1.4 0.2
2014-Nov-23 00:00S 61°36' W 068°12'2512.3 290 / 14990.6 -1.5 0.4
2014-Nov-22 22:00S 62°00' W 068°24'19 9.4 270 / 13990.8 -1.9 0.4
2014-Nov-22 20:00S 62°18' W 068°36'2512.3 240 / 14990.3 -2.0 0.6
2014-Nov-22 18:00S 62°42' W 068°48'19 9.4 250 / 15989.8 -2.7 1.3
2014-Nov-22 16:00S 63°00' W 069°00'2512.3 250 / 13988.7 -2.8 1.3
2014-Nov-22 14:00S 63°24' W 069°12'20 9.9 240 / 17988.0 -3.0 1.3
2014-Nov-22 12:00S 63°42' W 069°30'18 9.1 250 / 20987.0 -3.5 1.4
2014-Nov-22 10:00S 64°00' W 069°36'20 9.8 230 / 19986.2 -3.7 1.5
2014-Nov-22 08:00S 64°18' W 069°54'30 7.5 230 / 23985.2 -2.2 1.6
2014-Nov-22 04:00S 64°42' W 070°36'14 7.1 220 / 23982.8 -4.1 1.7
2014-Nov-22 02:00S 64°54' W 070°54'18 9.0 220 / 25981.5 -2.3 1.7
2014-Nov-22 00:00S 65°12' W 070°54'18 9.0 220 / 24979.1 -4.4 1.7
2014-Nov-21 22:00S 65°30' W 070°54'12 6.1 210 / 28976.4 -3.0 1.7
2014-Nov-21 20:00S 65°42' W 070°48'12 6.1 210 / 16973.7 -2.5 1.7
2014-Nov-21 18:00S 65°54' W 070°42'0 0.0 200 / 10972.0 -0.4 1.8
2014-Nov-21 16:00S 65°54' W 070°42'2 1.2 060 / 6970.7 -2.2 1.7
2014-Nov-21 14:00S 65°54' W 070°48'0 0.0 250 / 4969.2 -2.0 1.8
2014-Nov-21 12:00S 65°54' W 070°48'0 0.0 340 / 6967.9 -2.0 1.8
2014-Nov-21 10:00S 65°54' W 070°48'8 3.9 340 / 6966.9 -0.4 1.8
2014-Nov-21 08:00S 65°48' W 071°00'16 2.6 360 / 5966.1 -1.9 1.7
2014-Nov-21 02:00S 65°36' W 071°24'8 3.9 300 / 11964.1 -1.9 1.7
2014-Nov-21 00:00S 65°30' W 071°36'10 4.8 300 / 12963.7 -1.5 1.7
2014-Nov-20 22:00S 65°24' W 071°54'2 1.2 280 / 11963.2 -1.6 1.7
2014-Nov-20 20:00S 65°24' W 072°00'0 0.0 240 / 10962.8 -1.4 1.7
2014-Nov-20 18:00S 65°24' W 072°00'0 0.0 290 / 13962.5 -1.4 1.8
2014-Nov-20 16:00S 65°24' W 072°00'14 7.1 290 / 15962.8 -1.5 1.8
2014-Nov-20 14:00S 65°12' W 072°18'8 3.9 230 / 15963.5 -1.4 1.7
2014-Nov-20 12:00S 65°06' W 072°30'8 3.9 280 / 20964.8 -1.4 1.6
2014-Nov-20 10:00S 65°00' W 072°42'0 0.0 240 / 14965.3 -1.7 1.6
2014-Nov-20 08:00S 65°00' W 072°42'10 2.4 240 / 12965.8 -1.8 1.6
2014-Nov-20 04:00S 64°54' W 073°00'8 3.9 130 / 10967.0 -1.4 1.5
2014-Nov-20 02:00S 64°48' W 073°12'8 3.9 340 / 11968.8 -1.2 1.6
2014-Nov-20 00:00S 64°42' W 073°24'0 0.0 230 / 15970.6 -1.1 1.5
2014-Nov-19 22:00S 64°42' W 073°24'14 7.1 340 / 15972.5 -0.1 1.6
2014-Nov-19 20:00S 64°30' W 073°42'8 4.0 310 / 25975.0 -1.5 1.6
2014-Nov-19 18:00S 64°24' W 073°54'3 0.6 020 / 19978.2 -1.8 1.3
2014-Nov-19 14:00S 64°24' W 074°00'16 7.9 300 / 20983.1 -2.8 1.3
2014-Nov-19 12:00S 64°12' W 073°36'20 9.9 310 / 21985.0 -3.5 1.3
2014-Nov-19 10:00S 64°00' W 073°00'18 8.9 270 / 18986.1 -3.4 1.5
2014-Nov-19 08:00S 63°48' W 072°30'12 3.0 260 / 8986.8 -4.2 1.5
2014-Nov-19 04:00S 63°54' W 072°06'8 4.0 240 / 20985.3 -5.2 1.5
2014-Nov-19 02:00S 64°00' W 071°54'7 3.3 220 / 21983.0 -5.3 1.6
2014-Nov-19 00:00S 64°06' W 071°48'12 6.0 220 / 25980.0 -5.4 1.6
2014-Nov-18 22:00S 64°12' W 071°24'0 0.0 180 / 19978.8 -5.0 1.6
2014-Nov-18 20:00S 64°12' W 071°24'6 3.0 130 / 18977.5 -5.1 1.6
2014-Nov-18 18:00S 64°18' W 071°24'8 4.0 150 / 24975.6 -5.7 1.6
2014-Nov-18 16:00S 64°24' W 071°12'18 4.4 200 / 22972.7 -5.7 1.7
2014-Nov-18 12:00S 64°36' W 070°42'0 0.0 120 / 18970.2 -6.4 1.6
2014-Nov-18 10:00S 64°36' W 070°42'24 3.9 330 / 19969.2 -6.5 1.6
2014-Nov-18 04:00S 64°54' W 070°06'   140 / 14967.3 -5.6 1.6
Track history (hours):
 
Tides and Currents Weather Stations Pressure Air Temp Water Temp Dewpoint Dewpoint Depression Visibility Wind Speed Wind Dir Waves Ship Positions

Oceanographic research ship Nathaniel B. Palmer (USA)

Contact: Ethan Norris, ethan.norris.contractor@usap.gov

Detailed information on ship capabilities available from University of Delaware's Ocean Information Center and ARCUS's ALIAS (Arctic Logistics Information and Support) project.

Owner: OFFSHORE SERVICE VESSELS, GALLIANO, LA. More information available from US FCC via Universal Licensing System and Coast Guard Vessel Documentation Center.

Last reported at 2014-Nov-28 04:00 UTC. Time now 2014-Nov-28 05:39 UTC.
Position S 53°00' W 070°48'.

Type: Other ship. MMSI: 366610000.

Wind from 210 at 7 knots

Barometer 997.2 mb
Air temperature 9.6 ° C
Water temperature 3.8 ° C

Date/timePositionNaut miles runAvg speedWind from/ knotsBaromVisibWave heightAir tempDewpointWater temp
2014-Nov-28 04:00S 53°00' W 070°48'0 0.0 210 / 7997.2 9.6 3.8
2014-Nov-28 02:00S 53°00' W 070°48'0 0.0 260 / 14996.4 10.0 3.8
2014-Nov-28 00:00S 53°00' W 070°48'0 0.0 320 / 9994.4 13.7 3.8
2014-Nov-27 22:00S 53°00' W 070°48'0 0.0 050 / 12994.7 15.2 3.8
2014-Nov-27 20:00S 53°00' W 070°48'0 0.0 340 / 11995.0 15.4 3.8
2014-Nov-27 18:00S 53°00' W 070°48'0 0.0 330 / 11996.1 10.6 3.8
2014-Nov-27 16:00S 53°00' W 070°48'0 0.0 010 / 11997.9 10.7 3.8
2014-Nov-27 14:00S 53°00' W 070°48'0 0.0 110 / 71000.3 9.7 3.8
2014-Nov-27 12:00S 53°00' W 070°48'0 0.0 310 / 91002.2 8.6 3.8
2014-Nov-27 10:00S 53°00' W 070°48'0 0.0 010 / 61004.4 8.4 3.8
2014-Nov-27 08:00S 53°00' W 070°48'0 0.0 110 / 61005.7 8.8 3.8
2014-Nov-27 04:00S 53°00' W 070°48'0 0.0 270 / 51007.9 10.8 3.8
2014-Nov-27 02:00S 53°00' W 070°48'0 0.0 100 / 71009.1 10.0 3.8
2014-Nov-27 00:00S 53°00' W 070°48'0 0.0 260 / 91009.1 10.3 3.8
2014-Nov-26 22:00S 53°00' W 070°48'0 0.0 320 / 161008.6 11.5 3.8
2014-Nov-26 20:00S 53°00' W 070°48'0 0.0 270 / 291006.9 12.7 3.8
2014-Nov-26 18:00S 53°00' W 070°48'0 0.0 250 / 241006.3 12.8 3.8
2014-Nov-26 16:00S 53°00' W 070°48'0 0.0 240 / 241005.7 11.0 3.8
2014-Nov-26 14:00S 53°00' W 070°48'0 0.0 350 / 261004.4 11.8 3.8
2014-Nov-26 12:00S 53°00' W 070°48'0 0.0 290 / 161004.3 10.1 3.8
2014-Nov-26 10:00S 53°00' W 070°48'0 0.0 290 / 71002.7 9.2 3.8
2014-Nov-26 08:00S 53°00' W 070°48'0 0.0 030 / 81000.4 7.6 3.8
2014-Nov-26 04:00S 53°00' W 070°48'4 1.8 220 / 8998.6 7.3 3.8
2014-Nov-26 02:00S 53°00' W 070°42'0 0.0 270 / 28996.6 7.5 3.8
2014-Nov-26 00:00S 53°00' W 070°42'9 4.7 270 / 35993.9 7.6 3.8
2014-Nov-25 22:00S 52°54' W 070°30'19 9.7 280 / 38993.2 7.6 3.8
2014-Nov-25 20:00S 52°36' W 070°18'2613.1 260 / 43993.0 10.4 3.8
2014-Nov-25 18:00S 52°30' W 069°36'2612.8 270 / 38992.8 10.6 3.8
2014-Nov-25 16:00S 52°12' W 069°06'2814.2 260 / 36992.5 11.5 3.8
2014-Nov-25 14:00S 52°24' W 068°24'2210.9 270 / 28993.8 8.3 3.8
2014-Nov-25 12:00S 52°36' W 067°54'2612.8 270 / 30992.9 7.8 3.8
2014-Nov-25 10:00S 52°54' W 067°24'42 6.9 270 / 28992.6 6.6 3.8
2014-Nov-25 04:00S 53°24' W 066°36'35 8.7 300 / 41987.7 6.6 3.8
2014-Nov-25 00:00S 53°48' W 065°54'2512.6 280 / 33986.6 8.7 3.8
2014-Nov-24 22:00S 54°06' W 065°24'18 9.2 280 / 31986.2 8.8 3.8
2014-Nov-24 20:00S 54°18' W 065°00'3115.4 240 / 6989.2 7.3 3.8
2014-Nov-24 18:00S 54°48' W 064°48'18 9.2 260 / 13989.8 6.3 3.8
2014-Nov-24 16:00S 55°06' W 064°54'2512.5 280 / 18989.4 4.5 3.8
2014-Nov-24 14:00S 55°30' W 065°06'18 9.2 280 / 21989.2 4.1 3.8
2014-Nov-24 12:00S 55°48' W 065°12'19 9.6 270 / 26988.9 4.2 3.8
2014-Nov-24 10:00S 56°06' W 065°24'2412.1 260 / 30987.7 3.8 3.8
2014-Nov-24 08:00S 56°30' W 065°30'37 9.3 280 / 25986.1 3.6 3.8
2014-Nov-24 04:00S 57°06' W 065°48'2512.4 250 / 17986.2 3.9 3.8
2014-Nov-24 02:00S 57°30' W 066°00'18 9.1 240 / 19985.4 3.4 3.8
2014-Nov-24 00:00S 57°48' W 066°06'2512.4 230 / 17984.2 2.4 3.8
2014-Nov-23 22:00S 58°12' W 066°18'19 9.5 240 / 15982.9 3.2 3.8
2014-Nov-23 20:00S 58°30' W 066°30'2412.1 250 / 13981.8 3.2 3.6
2014-Nov-23 18:00S 58°54' W 066°36'19 9.5 280 / 10981.0 2.3 1.2
2014-Nov-23 16:00S 59°12' W 066°48'18 9.1 290 / 10980.8 1.3 0.3
2014-Nov-23 14:00S 59°30' W 066°54'2512.4 280 / 13980.4 2.4 2.0
2014-Nov-23 12:00S 59°54' W 067°06'13 6.7 340 / 15980.5 2.4 2.6
2014-Nov-23 10:00S 60°06' W 067°18'12 6.2 050 / 29982.9 0.1 2.6
2014-Nov-23 08:00S 60°18' W 067°24'4310.7 040 / 24985.5 -0.7 2.6
2014-Nov-23 04:00S 61°00' W 067°42'2010.0 360 / 11989.4 -0.4 0.1
2014-Nov-23 02:00S 61°18' W 068°00'19 9.4 320 / 10990.4 -1.4 0.2
2014-Nov-23 00:00S 61°36' W 068°12'2512.3 290 / 14990.6 -1.5 0.4
2014-Nov-22 22:00S 62°00' W 068°24'19 9.4 270 / 13990.8 -1.9 0.4
2014-Nov-22 20:00S 62°18' W 068°36'2512.3 240 / 14990.3 -2.0 0.6
2014-Nov-22 18:00S 62°42' W 068°48'19 9.4 250 / 15989.8 -2.7 1.3
2014-Nov-22 16:00S 63°00' W 069°00'2512.3 250 / 13988.7 -2.8 1.3
2014-Nov-22 14:00S 63°24' W 069°12'20 9.9 240 / 17988.0 -3.0 1.3
2014-Nov-22 12:00S 63°42' W 069°30'18 9.1 250 / 20987.0 -3.5 1.4
2014-Nov-22 10:00S 64°00' W 069°36'20 9.8 230 / 19986.2 -3.7 1.5
2014-Nov-22 08:00S 64°18' W 069°54'30 7.5 230 / 23985.2 -2.2 1.6
2014-Nov-22 04:00S 64°42' W 070°36'14 7.1 220 / 23982.8 -4.1 1.7
2014-Nov-22 02:00S 64°54' W 070°54'18 9.0 220 / 25981.5 -2.3 1.7
2014-Nov-22 00:00S 65°12' W 070°54'18 9.0 220 / 24979.1 -4.4 1.7
2014-Nov-21 22:00S 65°30' W 070°54'12 6.1 210 / 28976.4 -3.0 1.7
2014-Nov-21 20:00S 65°42' W 070°48'12 6.1 210 / 16973.7 -2.5 1.7
2014-Nov-21 18:00S 65°54' W 070°42'0 0.0 200 / 10972.0 -0.4 1.8
2014-Nov-21 16:00S 65°54' W 070°42'2 1.2 060 / 6970.7 -2.2 1.7
2014-Nov-21 14:00S 65°54' W 070°48'0 0.0 250 / 4969.2 -2.0 1.8
2014-Nov-21 12:00S 65°54' W 070°48'0 0.0 340 / 6967.9 -2.0 1.8
2014-Nov-21 10:00S 65°54' W 070°48'8 3.9 340 / 6966.9 -0.4 1.8
2014-Nov-21 08:00S 65°48' W 071°00'16 2.6 360 / 5966.1 -1.9 1.7
2014-Nov-21 02:00S 65°36' W 071°24'8 3.9 300 / 11964.1 -1.9 1.7
2014-Nov-21 00:00S 65°30' W 071°36'10 4.8 300 / 12963.7 -1.5 1.7
2014-Nov-20 22:00S 65°24' W 071°54'2 1.2 280 / 11963.2 -1.6 1.7
2014-Nov-20 20:00S 65°24' W 072°00'0 0.0 240 / 10962.8 -1.4 1.7
2014-Nov-20 18:00S 65°24' W 072°00'0 0.0 290 / 13962.5 -1.4 1.8
2014-Nov-20 16:00S 65°24' W 072°00'14 7.1 290 / 15962.8 -1.5 1.8
2014-Nov-20 14:00S 65°12' W 072°18'8 3.9 230 / 15963.5 -1.4 1.7
2014-Nov-20 12:00S 65°06' W 072°30'8 3.9 280 / 20964.8 -1.4 1.6
2014-Nov-20 10:00S 65°00' W 072°42'0 0.0 240 / 14965.3 -1.7 1.6
2014-Nov-20 08:00S 65°00' W 072°42'10 2.4 240 / 12965.8 -1.8 1.6
2014-Nov-20 04:00S 64°54' W 073°00'8 3.9 130 / 10967.0 -1.4 1.5
2014-Nov-20 02:00S 64°48' W 073°12'8 3.9 340 / 11968.8 -1.2 1.6
2014-Nov-20 00:00S 64°42' W 073°24'0 0.0 230 / 15970.6 -1.1 1.5
2014-Nov-19 22:00S 64°42' W 073°24'14 7.1 340 / 15972.5 -0.1 1.6
2014-Nov-19 20:00S 64°30' W 073°42'8 4.0 310 / 25975.0 -1.5 1.6
2014-Nov-19 18:00S 64°24' W 073°54'3 0.6 020 / 19978.2 -1.8 1.3
2014-Nov-19 14:00S 64°24' W 074°00'16 7.9 300 / 20983.1 -2.8 1.3
2014-Nov-19 12:00S 64°12' W 073°36'20 9.9 310 / 21985.0 -3.5 1.3
2014-Nov-19 10:00S 64°00' W 073°00'18 8.9 270 / 18986.1 -3.4 1.5
2014-Nov-19 08:00S 63°48' W 072°30'12 3.0 260 / 8986.8 -4.2 1.5
2014-Nov-19 04:00S 63°54' W 072°06'8 4.0 240 / 20985.3 -5.2 1.5
2014-Nov-19 02:00S 64°00' W 071°54'7 3.3 220 / 21983.0 -5.3 1.6
2014-Nov-19 00:00S 64°06' W 071°48'12 6.0 220 / 25980.0 -5.4 1.6
2014-Nov-18 22:00S 64°12' W 071°24'0 0.0 180 / 19978.8 -5.0 1.6
2014-Nov-18 20:00S 64°12' W 071°24'6 3.0 130 / 18977.5 -5.1 1.6
2014-Nov-18 18:00S 64°18' W 071°24'8 4.0 150 / 24975.6 -5.7 1.6
2014-Nov-18 16:00S 64°24' W 071°12'18 4.4 200 / 22972.7 -5.7 1.7
2014-Nov-18 12:00S 64°36' W 070°42'0 0.0 120 / 18970.2 -6.4 1.6
2014-Nov-18 10:00S 64°36' W 070°42'24 3.9 330 / 19969.2 -6.5 1.6
2014-Nov-18 04:00S 64°54' W 070°06'   140 / 14967.3 -5.6 1.6

Dump ship's entire track history